createdAt,value
2019-01-05T00:00:38.931Z,3.50
2019-01-05T00:03:38.132Z,2.80
2019-01-05T00:06:28.447Z,2.87
2019-01-05T00:09:19.953Z,3.20
2019-01-05T00:12:11.574Z,2.93
2019-01-05T00:15:10.980Z,2.37
2019-01-05T00:18:00.147Z,2.43
2019-01-05T00:20:56.279Z,2.30
2019-01-05T00:23:52.817Z,2.00
2019-01-05T00:26:49.357Z,1.97
2019-01-05T00:29:37.499Z,1.90
2019-01-05T00:33:09.058Z,1.90
2019-01-05T00:36:10.001Z,2.00
2019-01-05T00:38:59.477Z,1.70
2019-01-05T00:41:48.745Z,1.97
2019-01-05T00:44:37.807Z,1.80
2019-01-05T00:47:28.513Z,1.50
2019-01-05T00:50:34.813Z,1.70
2019-01-05T00:53:34.394Z,1.50
2019-01-05T00:56:24.478Z,1.60
2019-01-05T00:59:14.977Z,1.90
2019-01-05T01:02:04.040Z,1.73
2019-01-05T01:04:52.697Z,1.73
2019-01-05T01:07:44.011Z,1.60
2019-01-05T01:10:32.566Z,1.57
2019-01-05T01:13:24.597Z,1.80
2019-01-05T01:16:23.701Z,1.67
2019-01-05T01:19:14.300Z,1.93
2019-01-05T01:22:18.108Z,1.83
2019-01-05T01:25:18.748Z,1.87
2019-01-05T01:28:08.955Z,1.70
2019-01-05T01:31:00.587Z,2.30
2019-01-05T01:33:49.930Z,2.07
2019-01-05T01:36:39.097Z,2.43
2019-01-05T01:39:44.033Z,2.70
2019-01-05T01:42:42.518Z,1.67
2019-01-05T01:45:38.443Z,2.20
2019-01-05T01:48:27.609Z,1.93
2019-01-05T01:51:26.727Z,1.90
2019-01-05T01:54:26.050Z,1.67
2019-01-05T01:57:14.907Z,1.83
2019-01-05T02:00:09.505Z,1.80
2019-01-05T02:03:08.089Z,1.73
2019-01-05T02:05:58.179Z,2.13
2019-01-05T02:08:49.213Z,1.30
2019-01-05T02:11:50.182Z,1.80
2019-01-05T02:14:32.915Z,1.70
2019-01-05T02:17:28.020Z,1.53
2019-01-05T02:20:47.601Z,1.33
2019-01-05T02:24:06.173Z,1.40
2019-01-05T02:27:48.495Z,1.40
2019-01-05T02:31:17.088Z,1.40
2019-01-05T02:38:05.253Z,1.03
2019-01-05T02:41:39.484Z,0.57
2019-01-05T02:45:00.413Z,0.70
2019-01-05T02:48:35.878Z,0.70
2019-01-05T02:51:40.012Z,0.57
2019-01-05T02:55:14.782Z,0.83
2019-01-05T02:58:52.228Z,1.23
2019-01-05T03:02:17.655Z,1.60
2019-01-05T03:06:03.665Z,1.40
2019-01-05T03:09:55.564Z,1.30
2019-01-05T03:13:35.711Z,1.20
2019-01-05T03:17:00.821Z,1.50
2019-01-05T03:20:34.837Z,1.53
2019-01-05T03:23:53.674Z,1.57
2019-01-05T03:27:33.627Z,1.73
2019-01-05T03:31:04.290Z,1.80
2019-01-05T03:34:25.452Z,1.67
2019-01-05T03:37:55.057Z,1.30
2019-01-05T03:41:33.777Z,1.60
2019-01-05T03:45:16.146Z,1.40
2019-01-05T03:49:10.105Z,1.00
2019-01-05T03:52:57.634Z,1.03
2019-01-05T03:56:06.381Z,0.77
2019-01-05T03:59:28.127Z,1.20
2019-01-05T04:02:53.423Z,1.20
2019-01-05T04:05:54.544Z,1.43
2019-01-05T04:09:27.823Z,0.87
2019-01-05T04:12:45.027Z,0.53
2019-01-05T04:16:32.842Z,0.50
2019-01-05T04:20:09.306Z,0.40
2019-01-05T04:23:41.657Z,0.40
2019-01-05T04:27:23.128Z,0.70
2019-01-05T04:30:50.883Z,0.60
2019-01-05T04:34:20.277Z,0.47
2019-01-05T04:37:37.393Z,0.50
2019-01-05T04:40:55.814Z,0.60
2019-01-05T04:44:13.631Z,0.47
2019-01-05T04:47:43.129Z,0.43
2019-01-05T04:51:11.198Z,0.50
2019-01-05T04:54:51.553Z,0.40
2019-01-05T04:58:38.769Z,0.40
2019-01-05T05:02:13.282Z,0.33
2019-01-05T05:06:08.809Z,0.37
2019-01-05T05:09:35.524Z,0.40
2019-01-05T05:13:19.470Z,0.60
2019-01-05T05:17:02.673Z,0.30
2019-01-05T05:20:51.633Z,0.57
2019-01-05T05:24:32.902Z,0.70
2019-01-05T05:27:45.972Z,0.30
2019-01-05T05:30:54.396Z,0.40
2019-01-05T05:34:31.577Z,0.40
2019-01-05T05:38:06.292Z,0.50
2019-01-05T05:41:42.148Z,0.70
2019-01-05T05:45:17.886Z,1.07
2019-01-05T05:48:36.926Z,1.37
2019-01-05T05:52:36.735Z,1.40
2019-01-05T05:56:01.717Z,0.70
2019-01-05T05:59:49.419Z,0.40
2019-01-05T06:02:59.640Z,0.50
2019-01-05T06:06:25.043Z,0.50
2019-01-05T06:09:39.475Z,0.40
2019-01-05T06:13:10.418Z,0.30
2019-01-05T06:16:45.420Z,0.30
2019-01-05T06:20:34.179Z,0.30
2019-01-05T06:24:19.137Z,0.30
2019-01-05T06:27:52.119Z,0.23
2019-01-05T06:31:44.565Z,0.47
2019-01-05T06:35:02.280Z,0.40
2019-01-05T06:38:32.504Z,0.37
2019-01-05T06:41:58.101Z,0.30
2019-01-05T06:45:23.901Z,0.50
2019-01-05T06:48:59.851Z,0.43
2019-01-05T06:52:55.054Z,0.33
2019-01-05T06:56:39.669Z,0.40
2019-01-05T07:00:31.425Z,0.70
2019-01-05T07:04:09.109Z,0.50
2019-01-05T07:07:45.888Z,0.30
2019-01-05T07:10:55.816Z,0.30
2019-01-05T07:14:09.323Z,0.43
2019-01-05T07:17:48.551Z,0.43
2019-01-05T07:21:39.145Z,0.50
2019-01-05T07:25:28.318Z,0.30
2019-01-05T07:28:56.784Z,0.40
2019-01-05T07:32:36.839Z,0.30
2019-01-05T07:36:01.814Z,0.30
2019-01-05T07:39:44.726Z,0.20
2019-01-05T07:43:33.015Z,0.37
2019-01-05T07:46:59.113Z,0.40
2019-01-05T07:50:27.255Z,0.50
2019-01-05T07:53:48.429Z,0.30
2019-01-05T07:57:07.886Z,0.30
2019-01-05T08:00:47.424Z,0.57
2019-01-05T08:04:33.214Z,0.67
2019-01-05T08:08:16.330Z,0.30
2019-01-05T08:11:50.129Z,0.40
2019-01-05T08:15:28.744Z,0.33
2019-01-05T08:18:53.110Z,0.40
2019-01-05T08:22:29.060Z,0.60
2019-01-05T08:26:10.582Z,0.73
2019-01-05T08:29:55.900Z,0.70
2019-01-05T08:33:23.462Z,0.70
2019-01-05T08:37:29.110Z,0.60
2019-01-05T08:41:17.967Z,0.93
2019-01-05T08:44:44.593Z,0.50
2019-01-05T08:48:26.707Z,0.57
2019-01-05T08:51:56.815Z,0.60
2019-01-05T08:55:36.920Z,0.57
2019-01-05T08:59:27.620Z,0.60
2019-01-05T09:03:09.208Z,0.40
2019-01-05T09:06:49.186Z,0.50
2019-01-05T09:10:34.892Z,0.53
2019-01-05T09:13:54.783Z,0.60
2019-01-05T09:17:14.038Z,0.77
2019-01-05T09:20:43.629Z,0.47
2019-01-05T09:24:29.651Z,0.50
2019-01-05T09:27:56.344Z,0.40
2019-01-05T09:31:32.085Z,0.43
2019-01-05T09:35:04.653Z,0.47
2019-01-05T09:38:33.935Z,0.57
2019-01-05T09:42:06.702Z,0.80
2019-01-05T09:45:48.100Z,0.90
2019-01-05T09:49:47.834Z,0.60
2019-01-05T09:53:39.180Z,0.70
2019-01-05T09:57:03.915Z,0.70
2019-01-05T10:00:41.191Z,0.57
2019-01-05T10:04:25.530Z,0.57
2019-01-05T10:07:53.047Z,0.37
2019-01-05T10:11:24.005Z,0.40
2019-01-05T10:15:02.111Z,0.40
2019-01-05T10:18:34.578Z,0.37
2019-01-05T10:22:08.768Z,0.30
2019-01-05T10:25:35.358Z,0.60
2019-01-05T10:29:22.039Z,0.67
2019-01-05T10:32:41.569Z,0.40
2019-01-05T10:36:10.337Z,0.60
2019-01-05T10:39:49.359Z,0.37
2019-01-05T10:43:22.095Z,0.40
2019-01-05T10:46:57.569Z,0.47
2019-01-05T10:50:35.048Z,0.60
2019-01-05T10:53:54.245Z,0.50
2019-01-05T10:57:39.671Z,0.53
2019-01-05T11:01:06.733Z,0.60
2019-01-05T11:04:36.824Z,0.73
2019-01-05T11:08:02.244Z,0.57
2019-01-05T11:11:33.448Z,0.80
2019-01-05T11:15:08.886Z,0.83
2019-01-05T11:18:46.974Z,1.10
2019-01-05T11:22:13.297Z,0.90
2019-01-05T11:25:41.348Z,0.80
2019-01-05T11:29:06.442Z,1.10
2019-01-05T11:32:54.070Z,1.03
2019-01-05T11:36:34.526Z,0.97
2019-01-05T11:40:23.494Z,1.17
2019-01-05T11:44:01.711Z,1.77
2019-01-05T11:47:46.532Z,1.20
2019-01-05T11:51:05.518Z,1.37
2019-01-05T11:55:00.191Z,1.20
2019-01-05T11:58:39.459Z,1.10
2019-01-05T12:02:19.775Z,1.20
2019-01-05T12:05:46.556Z,1.50
2019-01-05T12:09:17.935Z,1.40
2019-01-05T12:13:14.472Z,1.40
2019-01-05T12:16:46.657Z,1.40
2019-01-05T12:20:29.693Z,1.53
2019-01-05T12:23:55.292Z,1.70
2019-01-05T12:27:56.756Z,2.17
2019-01-05T12:31:17.075Z,2.30
2019-01-05T12:34:36.940Z,2.10
2019-01-05T12:37:58.058Z,2.77
2019-01-05T12:41:37.082Z,2.00
2019-01-05T12:45:41.115Z,2.23
2019-01-05T12:49:15.148Z,2.73
2019-01-05T12:52:55.523Z,2.57
2019-01-05T12:56:21.609Z,2.47
2019-01-05T12:59:59.711Z,2.40
2019-01-05T13:03:40.482Z,2.40
2019-01-05T13:07:25.082Z,2.40
2019-01-05T13:11:03.599Z,2.57
2019-01-05T13:14:27.904Z,2.33
2019-01-05T13:18:15.688Z,2.50
2019-01-05T13:21:46.587Z,2.73
2019-01-05T13:25:34.048Z,2.63
2019-01-05T13:29:13.044Z,2.37
2019-01-05T13:32:48.293Z,2.23
2019-01-05T13:36:35.417Z,2.50
2019-01-05T13:40:26.228Z,2.73
2019-01-05T13:44:08.852Z,2.50
2019-01-05T13:47:33.884Z,2.77
2019-01-05T13:50:54.154Z,2.37
2019-01-05T13:53:55.682Z,2.37
2019-01-05T13:57:03.208Z,2.70
2019-01-05T13:59:51.915Z,2.23
2019-01-05T14:02:58.139Z,2.53
2019-01-05T14:05:58.768Z,2.57
2019-01-05T14:08:48.546Z,2.40
2019-01-05T14:11:50.467Z,2.93
2019-01-05T14:14:57.602Z,2.77
2019-01-05T14:17:47.177Z,3.13
2019-01-05T14:20:38.814Z,2.63
2019-01-05T14:23:43.532Z,2.57
2019-01-05T14:26:32.707Z,2.77
2019-01-05T14:29:22.655Z,3.07
2019-01-05T14:32:16.450Z,2.90
2019-01-05T14:35:15.299Z,3.10
2019-01-05T14:38:19.106Z,2.63
2019-01-05T14:41:09.603Z,2.93
2019-01-05T14:43:52.643Z,3.17
2019-01-05T14:46:42.810Z,3.53
2019-01-05T14:49:48.259Z,3.17
2019-01-05T14:52:36.987Z,3.53
2019-01-05T14:55:36.601Z,3.70
2019-01-05T14:58:25.146Z,3.00
2019-01-05T15:01:18.471Z,2.97
2019-01-05T15:04:07.099Z,2.67
2019-01-05T15:06:51.418Z,2.50
2019-01-05T15:09:55.346Z,2.77
2019-01-05T15:12:56.796Z,3.10
2019-01-05T15:15:44.310Z,2.90
2019-01-05T15:18:39.098Z,2.80
2019-01-05T15:21:27.567Z,3.10
2019-01-05T15:24:19.218Z,3.00
2019-01-05T15:27:17.079Z,3.00
2019-01-05T15:30:06.124Z,3.57
2019-01-05T15:32:59.693Z,4.30
2019-01-05T15:35:55.720Z,4.37
2019-01-05T15:39:02.199Z,4.40
2019-01-05T15:41:48.663Z,4.60
2019-01-05T15:44:39.222Z,5.07
2019-01-05T15:47:30.229Z,4.80
2019-01-05T15:50:19.134Z,4.37
2019-01-05T15:53:25.079Z,4.40
2019-01-05T15:56:15.932Z,4.97
2019-01-05T15:59:11.246Z,5.97
2019-01-05T16:02:16.556Z,4.73
2019-01-05T16:05:21.913Z,5.00
2019-01-05T16:08:17.679Z,5.13
2019-01-05T16:11:08.778Z,4.37
2019-01-05T16:14:04.852Z,5.17
2019-01-05T16:17:10.560Z,4.53
2019-01-05T16:20:11.273Z,4.80
2019-01-05T16:23:00.794Z,5.83
2019-01-05T16:25:49.536Z,5.30
2019-01-05T16:28:38.185Z,5.13
2019-01-05T16:31:47.332Z,4.30
2019-01-05T16:34:43.306Z,4.43
2019-01-05T16:37:35.037Z,4.77
2019-01-05T16:40:27.773Z,5.03
2019-01-05T16:43:23.794Z,5.20
2019-01-05T16:46:16.564Z,4.63
2019-01-05T16:49:05.136Z,4.53
2019-01-05T16:52:05.081Z,4.47
2019-01-05T16:54:54.133Z,5.33
2019-01-05T16:57:48.668Z,5.23
2019-01-05T17:00:51.454Z,4.73
2019-01-05T17:03:40.346Z,5.33
2019-01-05T17:06:27.003Z,4.53
2019-01-05T17:09:16.556Z,4.70
2019-01-05T17:12:19.509Z,4.77
2019-01-05T17:15:20.873Z,5.30
2019-01-05T17:18:22.102Z,4.73
2019-01-05T17:21:20.266Z,5.47
2019-01-05T17:24:26.553Z,5.37
2019-01-05T17:27:17.107Z,5.20
2019-01-05T17:30:11.125Z,6.37
2019-01-05T17:33:05.343Z,4.90
2019-01-05T17:36:08.084Z,4.73
2019-01-05T17:39:15.879Z,5.40
2019-01-05T17:42:15.831Z,4.40
2019-01-05T17:45:09.780Z,4.93
2019-01-05T17:48:18.122Z,4.63
2019-01-05T17:51:21.587Z,6.20
2019-01-05T17:54:24.470Z,5.00
2019-01-05T17:57:24.897Z,5.97
2019-01-05T18:00:16.011Z,6.17
2019-01-05T18:03:13.110Z,6.10
2019-01-05T18:06:17.259Z,5.77
2019-01-05T18:09:05.079Z,6.50
2019-01-05T18:12:08.757Z,5.50
2019-01-05T18:15:09.269Z,6.33
2019-01-05T18:17:58.453Z,6.30
2019-01-05T18:21:01.249Z,5.97
2019-01-05T18:23:42.072Z,4.90
2019-01-05T18:26:31.489Z,5.27
2019-01-05T18:29:35.630Z,4.60
2019-01-05T18:32:35.246Z,4.37
2019-01-05T18:35:27.675Z,3.60
2019-01-05T18:38:17.259Z,3.17
2019-01-05T18:41:15.601Z,3.23
2019-01-05T18:44:21.315Z,3.00
2019-01-05T18:47:14.854Z,2.93
2019-01-05T18:50:08.094Z,2.57
2019-01-05T18:53:13.941Z,2.60
2019-01-05T18:56:11.695Z,2.63
2019-01-05T18:59:01.339Z,2.73
2019-01-05T19:02:02.349Z,2.90
2019-01-05T19:04:51.893Z,3.23
2019-01-05T19:08:04.475Z,2.80
2019-01-05T19:11:01.348Z,3.37
2019-01-05T19:14:11.398Z,2.80
2019-01-05T19:17:02.299Z,2.67
2019-01-05T19:19:53.795Z,3.30
2019-01-05T19:22:42.693Z,3.30
2019-01-05T19:25:34.786Z,3.73
2019-01-05T19:28:44.982Z,3.00
2019-01-05T19:31:35.126Z,3.27
2019-01-05T19:34:39.765Z,3.90
2019-01-05T19:37:42.968Z,3.40
2019-01-05T19:40:34.125Z,3.33
2019-01-05T19:43:28.033Z,3.20
2019-01-05T19:46:19.268Z,3.20
2019-01-05T19:49:18.348Z,3.67
2019-01-05T19:52:18.805Z,3.77
2019-01-05T19:55:10.381Z,3.63
2019-01-05T19:58:06.988Z,3.27
2019-01-05T20:00:55.545Z,3.97
2019-01-05T20:03:49.907Z,4.73
2019-01-05T20:06:45.423Z,4.53
2019-01-05T20:09:40.306Z,3.90
2019-01-05T20:12:33.685Z,4.10
2019-01-05T20:15:30.691Z,3.63
2019-01-05T20:18:32.254Z,4.53
2019-01-05T20:21:23.014Z,3.33
2019-01-05T20:24:14.987Z,3.70
2019-01-05T20:27:04.671Z,3.77
2019-01-05T20:29:55.724Z,4.00
2019-01-05T20:32:52.153Z,3.03
2019-01-05T20:35:43.860Z,2.17
2019-01-05T20:38:37.737Z,2.17
2019-01-05T20:41:28.099Z,1.90
2019-01-05T20:44:26.352Z,2.33
2019-01-05T20:47:17.736Z,1.80
2019-01-05T20:50:24.509Z,2.30
2019-01-05T20:53:17.497Z,2.70
2019-01-05T20:56:08.021Z,2.53
2019-01-05T20:58:57.933Z,2.50
2019-01-05T21:01:48.782Z,3.03
2019-01-05T21:04:50.129Z,3.00
2019-01-05T21:07:43.501Z,2.90
2019-01-05T21:10:47.199Z,2.90
2019-01-05T21:13:39.389Z,4.27
2019-01-05T21:16:28.648Z,3.87
2019-01-05T21:19:24.392Z,3.87
2019-01-05T21:22:21.548Z,4.30
2019-01-05T21:25:18.699Z,3.93
2019-01-05T21:28:17.451Z,3.83
2019-01-05T21:31:42.105Z,4.10
2019-01-05T21:34:33.593Z,4.33
2019-01-05T21:37:24.937Z,3.97
2019-01-05T21:40:34.538Z,3.80
2019-01-05T21:43:37.694Z,5.87
2019-01-05T21:46:47.607Z,4.57
2019-01-05T21:49:39.043Z,4.67
2019-01-05T21:52:49.719Z,5.47
2019-01-05T21:55:58.261Z,4.83
2019-01-05T21:59:12.935Z,5.33
2019-01-05T22:02:05.083Z,5.03
2019-01-05T22:04:55.549Z,5.27
2019-01-05T22:07:50.643Z,5.43
2019-01-05T22:10:39.460Z,5.23
2019-01-05T22:13:38.519Z,5.63
2019-01-05T22:16:29.287Z,5.40
2019-01-05T22:19:39.492Z,4.93
2019-01-05T22:22:39.571Z,5.83
2019-01-05T22:25:31.402Z,5.17
2019-01-05T22:28:23.881Z,5.27
2019-01-05T22:31:18.467Z,5.30
2019-01-05T22:34:15.259Z,5.53
2019-01-05T22:37:05.927Z,5.53
2019-01-05T22:39:58.682Z,6.93
2019-01-05T22:42:48.372Z,6.20
2019-01-05T22:45:50.515Z,6.57
2019-01-05T22:48:43.715Z,6.53
2019-01-05T22:51:34.513Z,5.87
2019-01-05T22:54:43.514Z,6.23
2019-01-05T22:57:37.763Z,6.30
2019-01-05T23:00:30.019Z,6.17
2019-01-05T23:03:24.113Z,7.30
2019-01-05T23:06:13.508Z,6.20
2019-01-05T23:09:05.307Z,6.30
2019-01-05T23:11:54.746Z,5.77
2019-01-05T23:14:43.797Z,6.17
2019-01-05T23:17:32.758Z,5.03
2019-01-05T23:20:39.485Z,4.93
2019-01-05T23:23:28.582Z,5.57
2019-01-05T23:26:22.099Z,4.50
2019-01-05T23:29:15.009Z,5.97
2019-01-05T23:32:02.186Z,4.40
2019-01-05T23:34:56.681Z,5.93
2019-01-05T23:37:49.077Z,6.30
2019-01-05T23:40:41.807Z,6.43
2019-01-05T23:43:31.395Z,7.20
2019-01-05T23:46:18.710Z,7.17
2019-01-05T23:49:25.309Z,7.87
2019-01-05T23:52:19.000Z,7.77
2019-01-05T23:55:24.762Z,6.90
2019-01-05T23:58:50.808Z,7.07
